Monroe, Georgia
Current Conditions -  °F | °C
As of 9:55 AM on Thursday 30 Oct 2014 (Local Time) from KWDR Reporting Station
Clear Clear  
Wind Chill: 55°   Ceiling: Unl
Heat Index: 55°   Visibility: 10mi
Dew Point: 46°   Wind: 6mph
Humidity: 71%   Direction: 360°N
Pressure: 30.13"   Gusts: NA
Location:  33.8°N, 83.71°W
Report Text: KWDR 301355Z AUTO 36005KT 10SM CLR 13/08 A3013 RMK AO2 T01270075 PWINO
Loading
Personal Weather Stations






























Interactive Weather Map
Tropical Storm Tracking
New forecast layout! Learn more

10-Day Weather Forecast

Advertisements
Track Severe Weather on mobile